MSC Orchestra — 3EJF3 — position and weather

sailwx.info

Track history (hours):
 
Tides and Currents Weather Stations Pressure Air Temp Water Temp Dewpoint Dewpoint Depression Visibility Wind Speed Wind Dir Waves Ship Positions

MSC Orchestra

Last reported at 2017-May-25 08:22 UTC. Time now 2017-May-25 20:05 UTC.
Position N 41°46' E 008°30'.

Length 292 m; draft 7.8 m.

Type: Ship. MMSI: 372497000.

Date/timePositionNaut miles runAvg speedWind from/ knotsBaromVisibWave heightAir tempDewpointWater temp
2017-May-25 08:22N 41°46' E 008°30'718.1
2017-May-25 07:59N 41°45' E 008°21'918.4
2017-May-25 07:29N 41°44' E 008°09'918.3
2017-May-25 06:59N 41°43' E 007°57'918.4
2017-May-25 06:30N 41°42' E 007°44'918.2
2017-May-25 06:00N 41°41' E 007°33'918.6
2017-May-25 05:30N 41°40' E 007°20'918.5
2017-May-25 05:00N 41°40' E 007°08'918.5
2017-May-25 04:29N 41°38' E 006°55'918.3
2017-May-25 04:00N 41°38' E 006°43'918.5
2017-May-25 03:30N 41°37' E 006°31'918.5
2017-May-25 03:00N 41°36' E 006°19'918.3
2017-May-25 02:30N 41°35' E 006°07'918.2
2017-May-25 02:00N 41°34' E 005°54'918.2
2017-May-25 01:30N 41°33' E 005°42'1018.4
2017-May-25 00:57N 41°32' E 005°29'918.4
2017-May-25 00:28N 41°31' E 005°17'918.5
2017-May-25 00:00N 41°30' E 005°06'918.3
2017-May-24 23:30N 41°29' E 004°53'918.1
2017-May-24 23:00N 41°28' E 004°41'917.9
2017-May-24 22:29N 41°27' E 004°29'918.2
2017-May-24 21:58N 41°26' E 004°17'1118.2
2017-May-24 21:22N 41°25' E 004°02'718.4
2017-May-24 21:00N 41°24' E 003°53'1018.2
2017-May-24 20:26N 41°23' E 003°40'818.0
2017-May-24 19:59N 41°22' E 003°29'1218.0
2017-May-24 19:18N 41°21' E 003°13'518.0
2017-May-24 19:00N 41°21' E 003°05'918.1
2017-May-24 18:29N 41°20' E 002°53'1117.9
2017-May-24 17:53N 41°19' E 002°39'918.0
2017-May-24 17:22N 41°18' E 002°27'717.6
2017-May-24 16:57N 41°15' E 002°17'613.1
2017-May-24 16:30N 41°18' E 002°10'3 2.5
2017-May-24 15:14N 41°22' E 002°11'0 0.0
2017-May-24 14:56N 41°22' E 002°11'0 0.0
2017-May-24 12:55N 41°22' E 002°11'0 0.0
2017-May-24 12:25N 41°22' E 002°11'0 0.0
2017-May-24 11:54N 41°22' E 002°11'0 0.0
2017-May-24 11:30N 41°22' E 002°11'0 0.0
2017-May-24 11:00N 41°22' E 002°11'0 0.0
2017-May-24 10:18N 41°22' E 002°11'0 0.0
2017-May-24 09:54N 41°22' E 002°11'0 0.0
2017-May-24 09:23N 41°22' E 002°11'0 0.0
2017-May-24 06:47N 41°21' E 002°11'1 3.5
2017-May-24 06:31N 41°21' E 002°10'4 7.3
2017-May-24 05:56N 41°17' E 002°11'816.9
2017-May-24 05:28N 41°09' E 002°11'1017.8
2017-May-24 04:56N 40°59' E 002°11'917.9
2017-May-24 04:25N 40°50' E 002°12'818.1
2017-May-24 04:00N 40°42' E 002°12'918.4
2017-May-24 03:30N 40°33' E 002°12'918.1
2017-May-24 03:00N 40°24' E 002°13'917.9
2017-May-24 02:30N 40°15' E 002°13'1818.0
2017-May-24 01:30N 39°57' E 002°13'917.9
2017-May-24 01:00N 39°48' E 002°14'917.7
2017-May-24 00:30N 39°39' E 002°15'917.6
2017-May-24 00:00N 39°31' E 002°19'1217.1
2017-May-23 23:17N 39°26' E 002°33'517.7
2017-May-23 23:00N 39°30' E 002°37'3 6.1
2017-May-23 22:30N 39°33' E 002°38'0 0.2
2017-May-23 21:58N 39°33' E 002°38'0 0.0
2017-May-23 21:28N 39°33' E 002°38'0 0.0
2017-May-23 20:58N 39°33' E 002°38'0 0.0
2017-May-23 20:30N 39°33' E 002°38'0 0.0
2017-May-23 20:00N 39°33' E 002°38'0 0.0
2017-May-23 19:30N 39°33' E 002°38'0 0.0
2017-May-23 19:00N 39°33' E 002°38'0 0.0
2017-May-23 18:30N 39°33' E 002°38'0 0.0
2017-May-23 17:59N 39°33' E 002°38'0 0.0
2017-May-23 17:29N 39°33' E 002°38'0 0.0
2017-May-23 16:59N 39°33' E 002°38'0 0.0
2017-May-23 16:29N 39°33' E 002°38'0 0.0
2017-May-23 15:58N 39°33' E 002°38'0 0.0
2017-May-23 15:28N 39°33' E 002°38'0 0.0
2017-May-23 14:58N 39°33' E 002°38'0 0.0
2017-May-23 14:28N 39°33' E 002°38'0 0.0
2017-May-23 13:27N 39°33' E 002°38'0 0.0
2017-May-23 13:00N 39°33' E 002°38'0 0.0
2017-May-23 12:30N 39°33' E 002°38'0 0.0
2017-May-23 12:00N 39°33' E 002°38'0 0.0
2017-May-23 11:30N 39°33' E 002°38'0 0.1
2017-May-23 11:00N 39°33' E 002°38'2 3.1
2017-May-23 10:30N 39°32' E 002°38'815.1
2017-May-23 10:00N 39°26' E 002°32'815.5
2017-May-23 09:30N 39°29' E 002°23'915.7
2017-May-23 08:57N 39°35' E 002°16'816.7
2017-May-23 08:27N 39°42' E 002°22'817.6
2017-May-23 08:00N 39°48' E 002°30'917.4
2017-May-23 07:30N 39°54' E 002°38'917.3
2017-May-23 07:00N 39°60' E 002°46'917.5
2017-May-23 06:30N 40°06' E 002°54'917.4
2017-May-23 06:00N 40°12' E 003°02'917.5
2017-May-23 05:30N 40°18' E 003°10'1017.5
2017-May-23 04:57N 40°25' E 003°19'817.4
2017-May-23 04:29N 40°31' E 003°27'1017.8
2017-May-23 03:57N 40°37' E 003°36'817.7
2017-May-23 03:30N 40°43' E 003°43'3017.4
2017-May-23 01:45N 41°05' E 004°11'417.2
2017-May-23 01:30N 41°08' E 004°14'1817.4
2017-May-23 00:30N 41°21' E 004°30'1017.3
2017-May-22 23:56N 41°28' E 004°39'817.3
2017-May-22 23:27N 41°35' E 004°46'817.2
2017-May-22 23:00N 41°40' E 004°54'817.1
2017-May-22 22:30N 41°47' E 005°01'917.2
2017-May-22 22:00N 41°53' E 005°09'917.3
2017-May-22 21:30N 41°59' E 005°17'917.3
2017-May-22 21:00N 42°06' E 005°25'917.2
2017-May-22 20:31N 42°12' E 005°32'917.0
2017-May-22 20:00N 42°18' E 005°40'916.9
2017-May-22 19:30N 42°25' E 005°48'816.9
2017-May-22 19:01N 42°31' E 005°56'917.0
2017-May-22 18:30N 42°37' E 006°04'816.5
2017-May-22 18:00N 42°38' E 006°15'816.4
2017-May-22 17:30N 42°41' E 006°25'917.6
2017-May-22 17:01N 42°47' E 006°34'1018.0
2017-May-22 16:26N 42°54' E 006°44'717.5
2017-May-22 16:00N 43°01' E 006°50'917.7
2017-May-22 15:31N 43°09' E 006°53'1017.7
2017-May-22 14:56N 43°19' E 006°56'1314.6
2017-May-22 14:00N 43°32' E 007°01'0 0.5
2017-May-22 13:28N 43°32' E 007°01'0 0.2
2017-May-22 12:58N 43°32' E 007°01'0 0.1
2017-May-22 12:28N 43°32' E 007°01'0 0.1
2017-May-22 11:55N 43°32' E 007°01'0 0.0
2017-May-22 11:30N 43°32' E 007°01'0 0.0
2017-May-22 10:57N 43°32' E 007°01'0 0.0
2017-May-22 10:30N 43°32' E 007°01'0 0.0
2017-May-22 09:57N 43°32' E 007°01'0 0.0
2017-May-22 09:30N 43°32' E 007°01'0 0.0
2017-May-22 08:53N 43°32' E 007°01'0 0.0
2017-May-22 08:20N 43°32' E 007°01'0 0.0
2017-May-22 07:59N 43°32' E 007°01'0 0.0
2017-May-22 07:17N 43°32' E 007°01'0 0.0
2017-May-22 06:58N 43°32' E 007°01'0 0.0
2017-May-22 06:30N 43°32' E 007°01'0 0.0
2017-May-22 06:00N 43°32' E 007°01'0 0.0
2017-May-22 05:30N 43°32' E 007°01'0 0.4
2017-May-22 05:00N 43°32' E 007°01'4 8.2
2017-May-22 04:30N 43°28' E 007°02'4 8.8
2017-May-22 04:00N 43°28' E 007°08'5 9.2
2017-May-22 03:30N 43°29' E 007°14'4 9.0
2017-May-22 03:00N 43°29' E 007°20'4 9.0
2017-May-22 02:30N 43°30' E 007°26'5 9.1
2017-May-22 02:00N 43°32' E 007°32'4 9.0
2017-May-22 01:30N 43°33' E 007°39'5 9.3
2017-May-22 01:00N 43°34' E 007°45'5 9.4
2017-May-22 00:30N 43°35' E 007°51'5 9.1
2017-May-22 00:00N 43°36' E 007°57'4 8.9
2017-May-21 23:30N 43°38' E 008°03'5 9.0
2017-May-21 23:00N 43°40' E 008°08'4 9.0
2017-May-21 22:30N 43°42' E 008°14'5 9.0
2017-May-21 22:00N 43°44' E 008°19'5 9.1
2017-May-21 21:30N 43°48' E 008°23'5 9.1
2017-May-21 21:00N 43°51' E 008°27'4 8.9
2017-May-21 20:30N 43°55' E 008°31'4 8.9
2017-May-21 20:00N 43°58' E 008°35'5 9.1
2017-May-21 19:30N 44°02' E 008°39'4 9.0
2017-May-21 19:00N 44°05' E 008°43'4 8.8
2017-May-21 18:30N 44°09' E 008°46'4 8.4
2017-May-21 18:00N 44°12' E 008°50'4 8.4
2017-May-21 17:30N 44°15' E 008°54'4 8.3
2017-May-21 17:00N 44°19' E 008°57'4 8.8
2017-May-21 16:30N 44°23' E 008°57'2 4.2
2017-May-21 16:00N 44°25' E 008°55'0 0.0
2017-May-21 15:27N 44°25' E 008°55'0 0.0
2017-May-21 15:00N 44°25' E 008°55'0 0.0
2017-May-21 13:58N 44°25' E 008°55'0 0.0
2017-May-21 13:29N 44°25' E 008°55'0 0.0
2017-May-21 12:59N 44°25' E 008°55'0 0.0
2017-May-21 12:25N 44°25' E 008°55'0 0.0
2017-May-21 11:49N 44°25' E 008°55'0 0.0
2017-May-21 11:19N 44°25' E 008°55'0 0.0
2017-May-21 10:58N 44°25' E 008°55'0 0.0
2017-May-21 10:28N 44°25' E 008°55'0 0.0
2017-May-21 09:54N 44°25' E 008°55'0 0.0
2017-May-21 09:18N 44°25' E 008°55'0 0.0
2017-May-21 09:00N 44°25' E 008°55'0 0.0
2017-May-21 08:30N 44°25' E 008°55'0 0.0
2017-May-21 07:57N 44°25' E 008°55'0 0.0
2017-May-21 07:23N 44°25' E 008°55'0 0.0
2017-May-21 06:50N 44°25' E 008°55'0 0.0
2017-May-21 06:17N 44°25' E 008°55'0 0.0
2017-May-21 05:59N 44°25' E 008°55'0 0.0
2017-May-21 05:25N 44°25' E 008°55'0 0.9
2017-May-21 05:00N 44°24' E 008°55'2 3.6
2017-May-21 04:30N 44°23' E 008°57'4 7.5
2017-May-21 04:00N 44°20' E 008°59'4 7.3
2017-May-21 03:30N 44°16' E 008°59'4 7.2
2017-May-21 03:00N 44°12' E 008°60'4 7.5
2017-May-21 02:30N 44°09' E 008°60'4 7.2
2017-May-21 02:00N 44°05' E 009°00'3 6.8
2017-May-21 01:30N 44°02' E 009°00'3 6.6
2017-May-21 01:00N 43°58' E 009°01'3 6.1
2017-May-21 00:30N 43°55' E 009°01'3 6.3
2017-May-21 00:00N 43°52' E 009°01'3 6.4
2017-May-20 23:30N 43°49' E 009°02'3 6.1
2017-May-20 23:00N 43°47' E 009°04'3 6.5
2017-May-20 22:30N 43°47' E 009°09'3 6.6
2017-May-20 22:00N 43°48' E 009°13'3 6.8
2017-May-20 21:30N 43°49' E 009°18'3 6.8
2017-May-20 21:00N 43°50' E 009°22'3 6.8
2017-May-20 20:30N 43°52' E 009°26'4 7.4
2017-May-20 20:00N 43°53' E 009°31'4 7.5
2017-May-20 19:30N 43°55' E 009°36'4 7.5
2017-May-20 19:00N 43°56' E 009°41'4 7.5
2017-May-20 18:30N 43°57' E 009°45'4 8.1
2017-May-20 18:00N 43°59' E 009°50'4 7.7
2017-May-20 17:30N 44°03' E 009°52'4 7.2
2017-May-20 17:00N 44°06' E 009°50'0 0.1
2017-May-20 16:28N 44°06' E 009°50'0 0.0
2017-May-20 16:00N 44°06' E 009°50'0 0.0
2017-May-20 15:30N 44°06' E 009°50'0 0.0
2017-May-20 15:00N 44°06' E 009°50'0 0.0
2017-May-20 14:00N 44°06' E 009°50'0 0.0
2017-May-20 13:29N 44°06' E 009°50'0 0.0
2017-May-20 12:59N 44°06' E 009°50'0 0.0
2017-May-20 12:29N 44°06' E 009°50'0 0.0
2017-May-20 11:59N 44°06' E 009°50'0 0.0
2017-May-20 11:28N 44°06' E 009°50'0 0.0
2017-May-20 10:55N 44°06' E 009°50'0 0.0
2017-May-20 10:28N 44°06' E 009°50'0 0.0
2017-May-20 09:58N 44°06' E 009°50'0 0.0
2017-May-20 09:28N 44°06' E 009°50'0 0.0
2017-May-20 09:00N 44°06' E 009°50'0 0.0
2017-May-20 08:30N 44°06' E 009°50'0 0.0
2017-May-20 08:00N 44°06' E 009°50'0 0.0
2017-May-20 07:30N 44°06' E 009°50'0 0.0
2017-May-20 07:00N 44°06' E 009°50'0 0.0
2017-May-20 06:29N 44°06' E 009°50'0 0.0
2017-May-20 05:59N 44°06' E 009°50'0 0.0
2017-May-20 05:30N 44°06' E 009°50'0 0.0
2017-May-20 05:01N 44°06' E 009°50'0 0.8
2017-May-20 04:31N 44°06' E 009°51'3 6.3
2017-May-20 04:01N 44°03' E 009°52'611.5
2017-May-20 03:30N 43°59' E 009°57'714.0
2017-May-20 03:00N 43°52' E 009°52'714.9
2017-May-20 02:30N 43°46' E 009°47'714.9
2017-May-20 02:00N 43°39' E 009°44'815.9
2017-May-20 01:30N 43°31' E 009°42'816.4
2017-May-20 01:00N 43°23' E 009°45'816.3
2017-May-20 00:30N 43°16' E 009°51'815.7
2017-May-20 00:00N 43°09' E 009°56'815.7
2017-May-19 23:30N 43°02' E 010°00'816.6
2017-May-19 23:00N 42°54' E 010°01'816.9
2017-May-19 22:30N 42°45' E 010°02'3116.8
2017-May-19 20:40N 42°25' E 010°33'416.5
2017-May-19 20:27N 42°23' E 010°37'1017.4
2017-May-19 19:53N 42°17' E 010°47'717.9
2017-May-19 19:29N 42°12' E 010°55'817.2
2017-May-19 19:00N 42°08' E 011°05'917.5
2017-May-19 18:30N 42°07' E 011°17'1117.5
2017-May-19 17:52N 42°06' E 011°31'11 2.9
2017-May-19 13:57N 42°06' E 011°47'0 0.0
2017-May-19 12:49N 42°06' E 011°47'0 0.0
2017-May-19 12:30N 42°06' E 011°47'0 0.0
2017-May-19 10:18N 42°06' E 011°47'0 0.0
2017-May-19 09:50N 42°06' E 011°47'0 0.0
2017-May-19 09:30N 42°06' E 011°47'0 0.0
2017-May-19 08:59N 42°06' E 011°47'0 0.0
2017-May-19 08:29N 42°06' E 011°47'0 0.0
2017-May-19 07:59N 42°06' E 011°47'0 0.0
2017-May-19 07:31N 42°06' E 011°47'0 0.0
2017-May-19 06:58N 42°06' E 011°47'20 4.6
2017-May-19 02:39N 41°59' E 011°22'316.3
2017-May-19 02:27N 41°57' E 011°17'716.2
2017-May-19 02:00N 41°55' E 011°09'815.7
2017-May-19 01:31N 41°52' E 010°59'1015.6
2017-May-19 00:51N 41°48' E 010°46'915.7
2017-May-19 00:16N 41°44' E 010°35'1016.0
2017-May-18 23:37N 41°40' E 010°22'215.9
2017-May-18 23:31N 41°40' E 010°20'816.1
2017-May-18 23:01N 41°37' E 010°10'1916.0
2017-May-18 21:48N 41°28' E 009°47'515.5
2017-May-18 21:30N 41°27' E 009°41'816.0
2017-May-18 21:00N 41°24' E 009°31'916.3
2017-May-18 20:29N 41°20' E 009°20'715.0
2017-May-18 20:00N 41°18' E 009°12'815.4
2017-May-18 19:29N 41°20' E 009°02'816.0
2017-May-18 19:00N 41°24' E 008°53'916.7
2017-May-18 18:29N 41°30' E 008°45'917.7
2017-May-18 17:59N 41°38' E 008°40'817.2
2017-May-18 17:30N 41°46' E 008°37'917.6
2017-May-18 17:00N 41°53' E 008°44'2 3.8
2017-May-18 16:28N 41°55' E 008°45'0 0.0
2017-May-18 15:59N 41°55' E 008°45'0 0.0
2017-May-18 15:25N 41°55' E 008°45'0 0.0
2017-May-18 15:00N 41°55' E 008°45'0 0.0
2017-May-18 14:00N 41°55' E 008°45'0 0.0
2017-May-18 13:28N 41°55' E 008°45'0 0.0
2017-May-18 12:59N 41°55' E 008°45'0 0.0
2017-May-18 12:28N 41°55' E 008°45'0 0.0
2017-May-18 12:00N 41°55' E 008°45'0 0.0
2017-May-18 11:29N 41°55' E 008°45'0 0.1
2017-May-18 10:58N 41°55' E 008°45'0 0.1
2017-May-18 10:30N 41°55' E 008°45'0 0.0
2017-May-18 10:00N 41°55' E 008°45'0 0.0
2017-May-18 09:30N 41°55' E 008°45'1 1.7
2017-May-18 08:58N 41°54' E 008°45'711.9
2017-May-18 08:22N 41°49' E 008°38'514.0
2017-May-18 08:00N 41°47' E 008°32'815.4
2017-May-18 07:29N 41°45' E 008°21'1515.9
2017-May-18 06:32N 41°44' E 008°01'116.4
2017-May-18 06:27N 41°43' E 007°59'817.2
2017-May-18 06:00N 41°42' E 007°49'917.5
2017-May-18 05:30N 41°41' E 007°38'917.5
2017-May-18 05:00N 41°41' E 007°26'917.3
2017-May-18 04:29N 41°40' E 007°14'1018.6
2017-May-18 03:58N 41°39' E 007°01'1020.5
2017-May-18 03:29N 41°38' E 006°48'1020.2
2017-May-18 03:00N 41°37' E 006°35'1020.1
2017-May-18 02:30N 41°36' E 006°22'1020.0
2017-May-18 01:59N 41°35' E 006°08'1019.8
2017-May-18 01:30N 41°34' E 005°55'1019.9
2017-May-18 00:59N 41°33' E 005°41'920.0
2017-May-18 00:30N 41°32' E 005°28'1019.9
2017-May-18 00:00N 41°31' E 005°15'1020.1
2017-May-17 23:30N 41°30' E 005°02'1020.3
2017-May-17 23:00N 41°29' E 004°49'1020.1
2017-May-17 22:30N 41°28' E 004°35'1019.9
2017-May-17 22:00N 41°27' E 004°22'1019.9
2017-May-17 21:30N 41°26' E 004°09'1019.7
2017-May-17 21:00N 41°25' E 003°56'1019.7
2017-May-17 20:30N 41°24' E 003°43'1020.0
2017-May-17 20:00N 41°23' E 003°29'1019.8
2017-May-17 19:30N 41°22' E 003°16'1019.8
2017-May-17 19:00N 41°21' E 003°03'917.5
2017-May-17 18:30N 41°20' E 002°52'917.6
2017-May-17 18:00N 41°19' E 002°40'917.7
2017-May-17 17:30N 41°18' E 002°28'917.4
2017-May-17 17:00N 41°16' E 002°17'612.0
2017-May-17 16:30N 41°19' E 002°10'2 1.4
2017-May-17 14:44N 41°22' E 002°11'0 0.0
2017-May-17 13:55N 41°22' E 002°11'0 0.0
2017-May-17 13:28N 41°22' E 002°11'0 0.0
2017-May-17 12:49N 41°22' E 002°11'0 0.0
2017-May-17 12:13N 41°22' E 002°11'0 0.0
2017-May-17 11:51N 41°22' E 002°11'0 0.0
2017-May-17 11:21N 41°22' E 002°11'0 0.0
2017-May-17 10:18N 41°22' E 002°11'0 0.0
2017-May-17 09:41N 41°22' E 002°11'0 0.0
2017-May-17 09:14N 41°22' E 002°11'0 0.0
2017-May-17 08:56N 41°22' E 002°11'0 0.0
2017-May-17 07:25N 41°22' E 002°11'0 0.0
2017-May-17 06:56N 41°22' E 002°11'0 0.2
2017-May-17 06:28N 41°22' E 002°11'4 7.4
2017-May-17 05:56N 41°18' E 002°11'716.1
2017-May-17 05:30N 41°11' E 002°11'917.3
2017-May-17 05:00N 41°02' E 002°11'918.0
2017-May-17 04:29N 40°53' E 002°12'917.9
2017-May-17 04:00N 40°44' E 002°12'917.7
2017-May-17 03:30N 40°35' E 002°12'917.6
2017-May-17 03:01N 40°27' E 002°13'917.9
2017-May-17 02:31N 40°18' E 002°13'917.7
2017-May-17 02:00N 40°09' E 002°13'917.7
2017-May-17 01:30N 39°60' E 002°14'917.7
2017-May-17 01:00N 39°51' E 002°14'1217.9
2017-May-17 00:19N 39°39' E 002°15'817.3
2017-May-16 23:51N 39°32' E 002°19'617.5
2017-May-16 23:30N 39°27' E 002°25'715.1
2017-May-16 23:00N 39°28' E 002°35'612.1
2017-May-16 22:30N 39°33' E 002°38'1 1.3
2017-May-16 22:01N 39°33' E 002°38'0 0.0
2017-May-16 21:28N 39°33' E 002°38'0 0.0
2017-May-16 21:00N 39°33' E 002°38'0 0.0
2017-May-16 20:30N 39°33' E 002°38'0 0.0
2017-May-16 20:00N 39°33' E 002°38'0 0.0
2017-May-16 19:30N 39°33' E 002°38'0 0.0
2017-May-16 18:59N 39°33' E 002°38'0 0.0
2017-May-16 18:29N 39°33' E 002°38'0 0.0
2017-May-16 17:59N 39°33' E 002°38'0 0.0
2017-May-16 17:29N 39°33' E 002°38'0 0.0
2017-May-16 16:59N 39°33' E 002°38'0 0.0
2017-May-16 16:28N 39°33' E 002°38'0 0.0
2017-May-16 15:58N 39°33' E 002°38'0 0.0
2017-May-16 15:28N 39°33' E 002°38'0 0.0
2017-May-16 14:58N 39°33' E 002°38'0 0.0
2017-May-16 14:28N 39°33' E 002°38'0 0.0
2017-May-16 13:30N 39°33' E 002°38'0 0.0
2017-May-16 13:00N 39°33' E 002°38'0 0.0
2017-May-16 12:30N 39°33' E 002°38'0 0.0
2017-May-16 11:59N 39°33' E 002°38'0 0.0
2017-May-16 11:26N 39°33' E 002°38'0 1.1
2017-May-16 11:00N 39°33' E 002°38'4 7.0
2017-May-16 10:30N 39°30' E 002°37'713.6
2017-May-16 10:00N 39°25' E 002°30'713.5
2017-May-16 09:30N 39°29' E 002°22'714.2
2017-May-16 08:58N 39°35' E 002°16'1115.0
2017-May-16 08:13N 39°44' E 002°24'415.9
2017-May-16 08:00N 39°46' E 002°28'816.0
2017-May-16 07:30N 39°52' E 002°35'816.0
2017-May-16 07:00N 39°57' E 002°43'816.0
2017-May-16 06:30N 40°03' E 002°50'816.1
2017-May-16 06:00N 40°09' E 002°58'816.9
2017-May-16 05:30N 40°15' E 003°05'917.3
2017-May-16 05:00N 40°21' E 003°13'1117.3
2017-May-16 04:21N 40°28' E 003°24'13317.2
2017-May-15 20:37N 42°02' E 005°31'217.0
2017-May-15 20:31N 42°03' E 005°32'2017.3
2017-May-15 19:21N 42°17' E 005°52'1417.8
2017-May-15 18:34N 42°27' E 006°05'418.4
2017-May-15 18:20N 42°30' E 006°09'618.4
2017-May-15 18:00N 42°34' E 006°15'918.2
2017-May-15 17:30N 42°40' E 006°24'918.4
2017-May-15 17:00N 42°46' E 006°33'1018.8
2017-May-15 16:29N 42°53' E 006°43'918.1
2017-May-15 15:58N 43°01' E 006°50'918.8
2017-May-15 15:30N 43°10' E 006°53'1318.7
2017-May-15 14:48N 43°22' E 006°57'517.8
2017-May-15 14:30N 43°27' E 006°59'5 4.8
2017-May-15 13:30N 43°32' E 007°01'0 0.0
2017-May-15 13:00N 43°32' E 007°01'0 0.0
2017-May-15 12:30N 43°32' E 007°01'0 0.0
2017-May-15 12:00N 43°32' E 007°01'0 0.0
2017-May-15 11:30N 43°32' E 007°01'0 0.0
2017-May-15 11:00N 43°32' E 007°01'0 0.0
2017-May-15 10:30N 43°32' E 007°01'0 0.0
2017-May-15 10:00N 43°32' E 007°01'0 0.0
2017-May-15 09:30N 43°32' E 007°01'0 0.0
2017-May-15 09:00N 43°32' E 007°01'0 0.0
2017-May-15 08:30N 43°32' E 007°01'  
Track history (hours):
 
Tides and Currents Weather Stations Pressure Air Temp Water Temp Dewpoint Dewpoint Depression Visibility Wind Speed Wind Dir Waves Ship Positions

MSC Orchestra

Last reported at 2017-May-25 08:22 UTC. Time now 2017-May-25 20:05 UTC.
Position N 41°46' E 008°30'.

Length 292 m; draft 7.8 m.

Type: Ship. MMSI: 372497000.

Date/timePositionNaut miles runAvg speedWind from/ knotsBaromVisibWave heightAir tempDewpointWater temp
2017-May-25 08:22N 41°46' E 008°30'718.1
2017-May-25 07:59N 41°45' E 008°21'918.4
2017-May-25 07:29N 41°44' E 008°09'918.3
2017-May-25 06:59N 41°43' E 007°57'918.4
2017-May-25 06:30N 41°42' E 007°44'918.2
2017-May-25 06:00N 41°41' E 007°33'918.6
2017-May-25 05:30N 41°40' E 007°20'918.5
2017-May-25 05:00N 41°40' E 007°08'918.5
2017-May-25 04:29N 41°38' E 006°55'918.3
2017-May-25 04:00N 41°38' E 006°43'918.5
2017-May-25 03:30N 41°37' E 006°31'918.5
2017-May-25 03:00N 41°36' E 006°19'918.3
2017-May-25 02:30N 41°35' E 006°07'918.2
2017-May-25 02:00N 41°34' E 005°54'918.2
2017-May-25 01:30N 41°33' E 005°42'1018.4
2017-May-25 00:57N 41°32' E 005°29'918.4
2017-May-25 00:28N 41°31' E 005°17'918.5
2017-May-25 00:00N 41°30' E 005°06'918.3
2017-May-24 23:30N 41°29' E 004°53'918.1
2017-May-24 23:00N 41°28' E 004°41'917.9
2017-May-24 22:29N 41°27' E 004°29'918.2
2017-May-24 21:58N 41°26' E 004°17'1118.2
2017-May-24 21:22N 41°25' E 004°02'718.4
2017-May-24 21:00N 41°24' E 003°53'1018.2
2017-May-24 20:26N 41°23' E 003°40'818.0
2017-May-24 19:59N 41°22' E 003°29'1218.0
2017-May-24 19:18N 41°21' E 003°13'518.0
2017-May-24 19:00N 41°21' E 003°05'918.1
2017-May-24 18:29N 41°20' E 002°53'1117.9
2017-May-24 17:53N 41°19' E 002°39'918.0
2017-May-24 17:22N 41°18' E 002°27'717.6
2017-May-24 16:57N 41°15' E 002°17'613.1
2017-May-24 16:30N 41°18' E 002°10'3 2.5
2017-May-24 15:14N 41°22' E 002°11'0 0.0
2017-May-24 14:56N 41°22' E 002°11'0 0.0
2017-May-24 12:55N 41°22' E 002°11'0 0.0
2017-May-24 12:25N 41°22' E 002°11'0 0.0
2017-May-24 11:54N 41°22' E 002°11'0 0.0
2017-May-24 11:30N 41°22' E 002°11'0 0.0
2017-May-24 11:00N 41°22' E 002°11'0 0.0
2017-May-24 10:18N 41°22' E 002°11'0 0.0
2017-May-24 09:54N 41°22' E 002°11'0 0.0
2017-May-24 09:23N 41°22' E 002°11'0 0.0
2017-May-24 06:47N 41°21' E 002°11'1 3.5
2017-May-24 06:31N 41°21' E 002°10'4 7.3
2017-May-24 05:56N 41°17' E 002°11'816.9
2017-May-24 05:28N 41°09' E 002°11'1017.8
2017-May-24 04:56N 40°59' E 002°11'917.9
2017-May-24 04:25N 40°50' E 002°12'818.1
2017-May-24 04:00N 40°42' E 002°12'918.4
2017-May-24 03:30N 40°33' E 002°12'918.1
2017-May-24 03:00N 40°24' E 002°13'917.9
2017-May-24 02:30N 40°15' E 002°13'1818.0
2017-May-24 01:30N 39°57' E 002°13'917.9
2017-May-24 01:00N 39°48' E 002°14'917.7
2017-May-24 00:30N 39°39' E 002°15'917.6
2017-May-24 00:00N 39°31' E 002°19'1217.1
2017-May-23 23:17N 39°26' E 002°33'517.7
2017-May-23 23:00N 39°30' E 002°37'3 6.1
2017-May-23 22:30N 39°33' E 002°38'0 0.2
2017-May-23 21:58N 39°33' E 002°38'0 0.0
2017-May-23 21:28N 39°33' E 002°38'0 0.0
2017-May-23 20:58N 39°33' E 002°38'0 0.0
2017-May-23 20:30N 39°33' E 002°38'0 0.0
2017-May-23 20:00N 39°33' E 002°38'0 0.0
2017-May-23 19:30N 39°33' E 002°38'0 0.0
2017-May-23 19:00N 39°33' E 002°38'0 0.0
2017-May-23 18:30N 39°33' E 002°38'0 0.0
2017-May-23 17:59N 39°33' E 002°38'0 0.0
2017-May-23 17:29N 39°33' E 002°38'0 0.0
2017-May-23 16:59N 39°33' E 002°38'0 0.0
2017-May-23 16:29N 39°33' E 002°38'0 0.0
2017-May-23 15:58N 39°33' E 002°38'0 0.0
2017-May-23 15:28N 39°33' E 002°38'0 0.0
2017-May-23 14:58N 39°33' E 002°38'0 0.0
2017-May-23 14:28N 39°33' E 002°38'0 0.0
2017-May-23 13:27N 39°33' E 002°38'0 0.0
2017-May-23 13:00N 39°33' E 002°38'0 0.0
2017-May-23 12:30N 39°33' E 002°38'0 0.0
2017-May-23 12:00N 39°33' E 002°38'0 0.0
2017-May-23 11:30N 39°33' E 002°38'0 0.1
2017-May-23 11:00N 39°33' E 002°38'2 3.1
2017-May-23 10:30N 39°32' E 002°38'815.1
2017-May-23 10:00N 39°26' E 002°32'815.5
2017-May-23 09:30N 39°29' E 002°23'915.7
2017-May-23 08:57N 39°35' E 002°16'816.7
2017-May-23 08:27N 39°42' E 002°22'817.6
2017-May-23 08:00N 39°48' E 002°30'917.4
2017-May-23 07:30N 39°54' E 002°38'917.3
2017-May-23 07:00N 39°60' E 002°46'917.5
2017-May-23 06:30N 40°06' E 002°54'917.4
2017-May-23 06:00N 40°12' E 003°02'917.5
2017-May-23 05:30N 40°18' E 003°10'1017.5
2017-May-23 04:57N 40°25' E 003°19'817.4
2017-May-23 04:29N 40°31' E 003°27'1017.8
2017-May-23 03:57N 40°37' E 003°36'817.7
2017-May-23 03:30N 40°43' E 003°43'3017.4
2017-May-23 01:45N 41°05' E 004°11'417.2
2017-May-23 01:30N 41°08' E 004°14'1817.4
2017-May-23 00:30N 41°21' E 004°30'1017.3
2017-May-22 23:56N 41°28' E 004°39'817.3
2017-May-22 23:27N 41°35' E 004°46'817.2
2017-May-22 23:00N 41°40' E 004°54'817.1
2017-May-22 22:30N 41°47' E 005°01'917.2
2017-May-22 22:00N 41°53' E 005°09'917.3
2017-May-22 21:30N 41°59' E 005°17'917.3
2017-May-22 21:00N 42°06' E 005°25'917.2
2017-May-22 20:31N 42°12' E 005°32'917.0
2017-May-22 20:00N 42°18' E 005°40'916.9
2017-May-22 19:30N 42°25' E 005°48'816.9
2017-May-22 19:01N 42°31' E 005°56'917.0
2017-May-22 18:30N 42°37' E 006°04'816.5
2017-May-22 18:00N 42°38' E 006°15'816.4
2017-May-22 17:30N 42°41' E 006°25'917.6
2017-May-22 17:01N 42°47' E 006°34'1018.0
2017-May-22 16:26N 42°54' E 006°44'717.5
2017-May-22 16:00N 43°01' E 006°50'917.7
2017-May-22 15:31N 43°09' E 006°53'1017.7
2017-May-22 14:56N 43°19' E 006°56'1314.6
2017-May-22 14:00N 43°32' E 007°01'0 0.5
2017-May-22 13:28N 43°32' E 007°01'0 0.2
2017-May-22 12:58N 43°32' E 007°01'0 0.1
2017-May-22 12:28N 43°32' E 007°01'0 0.1
2017-May-22 11:55N 43°32' E 007°01'0 0.0
2017-May-22 11:30N 43°32' E 007°01'0 0.0
2017-May-22 10:57N 43°32' E 007°01'0 0.0
2017-May-22 10:30N 43°32' E 007°01'0 0.0
2017-May-22 09:57N 43°32' E 007°01'0 0.0
2017-May-22 09:30N 43°32' E 007°01'0 0.0
2017-May-22 08:53N 43°32' E 007°01'0 0.0
2017-May-22 08:20N 43°32' E 007°01'0 0.0
2017-May-22 07:59N 43°32' E 007°01'0 0.0
2017-May-22 07:17N 43°32' E 007°01'0 0.0
2017-May-22 06:58N 43°32' E 007°01'0 0.0
2017-May-22 06:30N 43°32' E 007°01'0 0.0
2017-May-22 06:00N 43°32' E 007°01'0 0.0
2017-May-22 05:30N 43°32' E 007°01'0 0.4
2017-May-22 05:00N 43°32' E 007°01'4 8.2
2017-May-22 04:30N 43°28' E 007°02'4 8.8
2017-May-22 04:00N 43°28' E 007°08'5 9.2
2017-May-22 03:30N 43°29' E 007°14'4 9.0
2017-May-22 03:00N 43°29' E 007°20'4 9.0
2017-May-22 02:30N 43°30' E 007°26'5 9.1
2017-May-22 02:00N 43°32' E 007°32'4 9.0
2017-May-22 01:30N 43°33' E 007°39'5 9.3
2017-May-22 01:00N 43°34' E 007°45'5 9.4
2017-May-22 00:30N 43°35' E 007°51'5 9.1
2017-May-22 00:00N 43°36' E 007°57'4 8.9
2017-May-21 23:30N 43°38' E 008°03'5 9.0
2017-May-21 23:00N 43°40' E 008°08'4 9.0
2017-May-21 22:30N 43°42' E 008°14'5 9.0
2017-May-21 22:00N 43°44' E 008°19'5 9.1
2017-May-21 21:30N 43°48' E 008°23'5 9.1
2017-May-21 21:00N 43°51' E 008°27'4 8.9
2017-May-21 20:30N 43°55' E 008°31'4 8.9
2017-May-21 20:00N 43°58' E 008°35'5 9.1
2017-May-21 19:30N 44°02' E 008°39'4 9.0
2017-May-21 19:00N 44°05' E 008°43'4 8.8
2017-May-21 18:30N 44°09' E 008°46'4 8.4
2017-May-21 18:00N 44°12' E 008°50'4 8.4
2017-May-21 17:30N 44°15' E 008°54'4 8.3
2017-May-21 17:00N 44°19' E 008°57'4 8.8
2017-May-21 16:30N 44°23' E 008°57'2 4.2
2017-May-21 16:00N 44°25' E 008°55'0 0.0
2017-May-21 15:27N 44°25' E 008°55'0 0.0
2017-May-21 15:00N 44°25' E 008°55'0 0.0
2017-May-21 13:58N 44°25' E 008°55'0 0.0
2017-May-21 13:29N 44°25' E 008°55'0 0.0
2017-May-21 12:59N 44°25' E 008°55'0 0.0
2017-May-21 12:25N 44°25' E 008°55'0 0.0
2017-May-21 11:49N 44°25' E 008°55'0 0.0
2017-May-21 11:19N 44°25' E 008°55'0 0.0
2017-May-21 10:58N 44°25' E 008°55'0 0.0
2017-May-21 10:28N 44°25' E 008°55'0 0.0
2017-May-21 09:54N 44°25' E 008°55'0 0.0
2017-May-21 09:18N 44°25' E 008°55'0 0.0
2017-May-21 09:00N 44°25' E 008°55'0 0.0
2017-May-21 08:30N 44°25' E 008°55'0 0.0
2017-May-21 07:57N 44°25' E 008°55'0 0.0
2017-May-21 07:23N 44°25' E 008°55'0 0.0
2017-May-21 06:50N 44°25' E 008°55'0 0.0
2017-May-21 06:17N 44°25' E 008°55'0 0.0
2017-May-21 05:59N 44°25' E 008°55'0 0.0
2017-May-21 05:25N 44°25' E 008°55'0 0.9
2017-May-21 05:00N 44°24' E 008°55'2 3.6
2017-May-21 04:30N 44°23' E 008°57'4 7.5
2017-May-21 04:00N 44°20' E 008°59'4 7.3
2017-May-21 03:30N 44°16' E 008°59'4 7.2
2017-May-21 03:00N 44°12' E 008°60'4 7.5
2017-May-21 02:30N 44°09' E 008°60'4 7.2
2017-May-21 02:00N 44°05' E 009°00'3 6.8
2017-May-21 01:30N 44°02' E 009°00'3 6.6
2017-May-21 01:00N 43°58' E 009°01'3 6.1
2017-May-21 00:30N 43°55' E 009°01'3 6.3
2017-May-21 00:00N 43°52' E 009°01'3 6.4
2017-May-20 23:30N 43°49' E 009°02'3 6.1
2017-May-20 23:00N 43°47' E 009°04'3 6.5
2017-May-20 22:30N 43°47' E 009°09'3 6.6
2017-May-20 22:00N 43°48' E 009°13'3 6.8
2017-May-20 21:30N 43°49' E 009°18'3 6.8
2017-May-20 21:00N 43°50' E 009°22'3 6.8
2017-May-20 20:30N 43°52' E 009°26'4 7.4
2017-May-20 20:00N 43°53' E 009°31'4 7.5
2017-May-20 19:30N 43°55' E 009°36'4 7.5
2017-May-20 19:00N 43°56' E 009°41'4 7.5
2017-May-20 18:30N 43°57' E 009°45'4 8.1
2017-May-20 18:00N 43°59' E 009°50'4 7.7
2017-May-20 17:30N 44°03' E 009°52'4 7.2
2017-May-20 17:00N 44°06' E 009°50'0 0.1
2017-May-20 16:28N 44°06' E 009°50'0 0.0
2017-May-20 16:00N 44°06' E 009°50'0 0.0
2017-May-20 15:30N 44°06' E 009°50'0 0.0
2017-May-20 15:00N 44°06' E 009°50'0 0.0
2017-May-20 14:00N 44°06' E 009°50'0 0.0
2017-May-20 13:29N 44°06' E 009°50'0 0.0
2017-May-20 12:59N 44°06' E 009°50'0 0.0
2017-May-20 12:29N 44°06' E 009°50'0 0.0
2017-May-20 11:59N 44°06' E 009°50'0 0.0
2017-May-20 11:28N 44°06' E 009°50'0 0.0
2017-May-20 10:55N 44°06' E 009°50'0 0.0
2017-May-20 10:28N 44°06' E 009°50'0 0.0
2017-May-20 09:58N 44°06' E 009°50'0 0.0
2017-May-20 09:28N 44°06' E 009°50'0 0.0
2017-May-20 09:00N 44°06' E 009°50'0 0.0
2017-May-20 08:30N 44°06' E 009°50'0 0.0
2017-May-20 08:00N 44°06' E 009°50'0 0.0
2017-May-20 07:30N 44°06' E 009°50'0 0.0
2017-May-20 07:00N 44°06' E 009°50'0 0.0
2017-May-20 06:29N 44°06' E 009°50'0 0.0
2017-May-20 05:59N 44°06' E 009°50'0 0.0
2017-May-20 05:30N 44°06' E 009°50'0 0.0
2017-May-20 05:01N 44°06' E 009°50'0 0.8
2017-May-20 04:31N 44°06' E 009°51'3 6.3
2017-May-20 04:01N 44°03' E 009°52'611.5
2017-May-20 03:30N 43°59' E 009°57'714.0
2017-May-20 03:00N 43°52' E 009°52'714.9
2017-May-20 02:30N 43°46' E 009°47'714.9
2017-May-20 02:00N 43°39' E 009°44'815.9
2017-May-20 01:30N 43°31' E 009°42'816.4
2017-May-20 01:00N 43°23' E 009°45'816.3
2017-May-20 00:30N 43°16' E 009°51'815.7
2017-May-20 00:00N 43°09' E 009°56'815.7
2017-May-19 23:30N 43°02' E 010°00'816.6
2017-May-19 23:00N 42°54' E 010°01'816.9
2017-May-19 22:30N 42°45' E 010°02'3116.8
2017-May-19 20:40N 42°25' E 010°33'416.5
2017-May-19 20:27N 42°23' E 010°37'1017.4
2017-May-19 19:53N 42°17' E 010°47'717.9
2017-May-19 19:29N 42°12' E 010°55'817.2
2017-May-19 19:00N 42°08' E 011°05'917.5
2017-May-19 18:30N 42°07' E 011°17'1117.5
2017-May-19 17:52N 42°06' E 011°31'11 2.9
2017-May-19 13:57N 42°06' E 011°47'0 0.0
2017-May-19 12:49N 42°06' E 011°47'0 0.0
2017-May-19 12:30N 42°06' E 011°47'0 0.0
2017-May-19 10:18N 42°06' E 011°47'0 0.0
2017-May-19 09:50N 42°06' E 011°47'0 0.0
2017-May-19 09:30N 42°06' E 011°47'0 0.0
2017-May-19 08:59N 42°06' E 011°47'0 0.0
2017-May-19 08:29N 42°06' E 011°47'0 0.0
2017-May-19 07:59N 42°06' E 011°47'0 0.0
2017-May-19 07:31N 42°06' E 011°47'0 0.0
2017-May-19 06:58N 42°06' E 011°47'20 4.6
2017-May-19 02:39N 41°59' E 011°22'316.3
2017-May-19 02:27N 41°57' E 011°17'716.2
2017-May-19 02:00N 41°55' E 011°09'815.7
2017-May-19 01:31N 41°52' E 010°59'1015.6
2017-May-19 00:51N 41°48' E 010°46'915.7
2017-May-19 00:16N 41°44' E 010°35'1016.0
2017-May-18 23:37N 41°40' E 010°22'215.9
2017-May-18 23:31N 41°40' E 010°20'816.1
2017-May-18 23:01N 41°37' E 010°10'1916.0
2017-May-18 21:48N 41°28' E 009°47'515.5
2017-May-18 21:30N 41°27' E 009°41'816.0
2017-May-18 21:00N 41°24' E 009°31'916.3
2017-May-18 20:29N 41°20' E 009°20'715.0
2017-May-18 20:00N 41°18' E 009°12'815.4
2017-May-18 19:29N 41°20' E 009°02'816.0
2017-May-18 19:00N 41°24' E 008°53'916.7
2017-May-18 18:29N 41°30' E 008°45'917.7
2017-May-18 17:59N 41°38' E 008°40'817.2
2017-May-18 17:30N 41°46' E 008°37'917.6
2017-May-18 17:00N 41°53' E 008°44'2 3.8
2017-May-18 16:28N 41°55' E 008°45'0 0.0
2017-May-18 15:59N 41°55' E 008°45'0 0.0
2017-May-18 15:25N 41°55' E 008°45'0 0.0
2017-May-18 15:00N 41°55' E 008°45'0 0.0
2017-May-18 14:00N 41°55' E 008°45'0 0.0
2017-May-18 13:28N 41°55' E 008°45'0 0.0
2017-May-18 12:59N 41°55' E 008°45'0 0.0
2017-May-18 12:28N 41°55' E 008°45'0 0.0
2017-May-18 12:00N 41°55' E 008°45'0 0.0
2017-May-18 11:29N 41°55' E 008°45'0 0.1
2017-May-18 10:58N 41°55' E 008°45'0 0.1
2017-May-18 10:30N 41°55' E 008°45'0 0.0
2017-May-18 10:00N 41°55' E 008°45'0 0.0
2017-May-18 09:30N 41°55' E 008°45'1 1.7
2017-May-18 08:58N 41°54' E 008°45'711.9
2017-May-18 08:22N 41°49' E 008°38'514.0
2017-May-18 08:00N 41°47' E 008°32'815.4
2017-May-18 07:29N 41°45' E 008°21'1515.9
2017-May-18 06:32N 41°44' E 008°01'116.4
2017-May-18 06:27N 41°43' E 007°59'817.2
2017-May-18 06:00N 41°42' E 007°49'917.5
2017-May-18 05:30N 41°41' E 007°38'917.5
2017-May-18 05:00N 41°41' E 007°26'917.3
2017-May-18 04:29N 41°40' E 007°14'1018.6
2017-May-18 03:58N 41°39' E 007°01'1020.5
2017-May-18 03:29N 41°38' E 006°48'1020.2
2017-May-18 03:00N 41°37' E 006°35'1020.1
2017-May-18 02:30N 41°36' E 006°22'1020.0
2017-May-18 01:59N 41°35' E 006°08'1019.8
2017-May-18 01:30N 41°34' E 005°55'1019.9
2017-May-18 00:59N 41°33' E 005°41'920.0
2017-May-18 00:30N 41°32' E 005°28'1019.9
2017-May-18 00:00N 41°31' E 005°15'1020.1
2017-May-17 23:30N 41°30' E 005°02'1020.3
2017-May-17 23:00N 41°29' E 004°49'1020.1
2017-May-17 22:30N 41°28' E 004°35'1019.9
2017-May-17 22:00N 41°27' E 004°22'1019.9
2017-May-17 21:30N 41°26' E 004°09'1019.7
2017-May-17 21:00N 41°25' E 003°56'1019.7
2017-May-17 20:30N 41°24' E 003°43'1020.0
2017-May-17 20:00N 41°23' E 003°29'1019.8
2017-May-17 19:30N 41°22' E 003°16'1019.8
2017-May-17 19:00N 41°21' E 003°03'917.5
2017-May-17 18:30N 41°20' E 002°52'917.6
2017-May-17 18:00N 41°19' E 002°40'917.7
2017-May-17 17:30N 41°18' E 002°28'917.4
2017-May-17 17:00N 41°16' E 002°17'612.0
2017-May-17 16:30N 41°19' E 002°10'2 1.4
2017-May-17 14:44N 41°22' E 002°11'0 0.0
2017-May-17 13:55N 41°22' E 002°11'0 0.0
2017-May-17 13:28N 41°22' E 002°11'0 0.0
2017-May-17 12:49N 41°22' E 002°11'0 0.0
2017-May-17 12:13N 41°22' E 002°11'0 0.0
2017-May-17 11:51N 41°22' E 002°11'0 0.0
2017-May-17 11:21N 41°22' E 002°11'0 0.0
2017-May-17 10:18N 41°22' E 002°11'0 0.0
2017-May-17 09:41N 41°22' E 002°11'0 0.0
2017-May-17 09:14N 41°22' E 002°11'0 0.0
2017-May-17 08:56N 41°22' E 002°11'0 0.0
2017-May-17 07:25N 41°22' E 002°11'0 0.0
2017-May-17 06:56N 41°22' E 002°11'0 0.2
2017-May-17 06:28N 41°22' E 002°11'4 7.4
2017-May-17 05:56N 41°18' E 002°11'716.1
2017-May-17 05:30N 41°11' E 002°11'917.3
2017-May-17 05:00N 41°02' E 002°11'918.0
2017-May-17 04:29N 40°53' E 002°12'917.9
2017-May-17 04:00N 40°44' E 002°12'917.7
2017-May-17 03:30N 40°35' E 002°12'917.6
2017-May-17 03:01N 40°27' E 002°13'917.9
2017-May-17 02:31N 40°18' E 002°13'917.7
2017-May-17 02:00N 40°09' E 002°13'917.7
2017-May-17 01:30N 39°60' E 002°14'917.7
2017-May-17 01:00N 39°51' E 002°14'1217.9
2017-May-17 00:19N 39°39' E 002°15'817.3
2017-May-16 23:51N 39°32' E 002°19'617.5
2017-May-16 23:30N 39°27' E 002°25'715.1
2017-May-16 23:00N 39°28' E 002°35'612.1
2017-May-16 22:30N 39°33' E 002°38'1 1.3
2017-May-16 22:01N 39°33' E 002°38'0 0.0
2017-May-16 21:28N 39°33' E 002°38'0 0.0
2017-May-16 21:00N 39°33' E 002°38'0 0.0
2017-May-16 20:30N 39°33' E 002°38'0 0.0
2017-May-16 20:00N 39°33' E 002°38'0 0.0
2017-May-16 19:30N 39°33' E 002°38'0 0.0
2017-May-16 18:59N 39°33' E 002°38'0 0.0
2017-May-16 18:29N 39°33' E 002°38'0 0.0
2017-May-16 17:59N 39°33' E 002°38'0 0.0
2017-May-16 17:29N 39°33' E 002°38'0 0.0
2017-May-16 16:59N 39°33' E 002°38'0 0.0
2017-May-16 16:28N 39°33' E 002°38'0 0.0
2017-May-16 15:58N 39°33' E 002°38'0 0.0
2017-May-16 15:28N 39°33' E 002°38'0 0.0
2017-May-16 14:58N 39°33' E 002°38'0 0.0
2017-May-16 14:28N 39°33' E 002°38'0 0.0
2017-May-16 13:30N 39°33' E 002°38'0 0.0
2017-May-16 13:00N 39°33' E 002°38'0 0.0
2017-May-16 12:30N 39°33' E 002°38'0 0.0
2017-May-16 11:59N 39°33' E 002°38'0 0.0
2017-May-16 11:26N 39°33' E 002°38'0 1.1
2017-May-16 11:00N 39°33' E 002°38'4 7.0
2017-May-16 10:30N 39°30' E 002°37'713.6
2017-May-16 10:00N 39°25' E 002°30'713.5
2017-May-16 09:30N 39°29' E 002°22'714.2
2017-May-16 08:58N 39°35' E 002°16'1115.0
2017-May-16 08:13N 39°44' E 002°24'415.9
2017-May-16 08:00N 39°46' E 002°28'816.0
2017-May-16 07:30N 39°52' E 002°35'816.0
2017-May-16 07:00N 39°57' E 002°43'816.0
2017-May-16 06:30N 40°03' E 002°50'816.1
2017-May-16 06:00N 40°09' E 002°58'816.9
2017-May-16 05:30N 40°15' E 003°05'917.3
2017-May-16 05:00N 40°21' E 003°13'1117.3
2017-May-16 04:21N 40°28' E 003°24'13317.2
2017-May-15 20:37N 42°02' E 005°31'217.0
2017-May-15 20:31N 42°03' E 005°32'2017.3
2017-May-15 19:21N 42°17' E 005°52'1417.8
2017-May-15 18:34N 42°27' E 006°05'418.4
2017-May-15 18:20N 42°30' E 006°09'618.4
2017-May-15 18:00N 42°34' E 006°15'918.2
2017-May-15 17:30N 42°40' E 006°24'918.4
2017-May-15 17:00N 42°46' E 006°33'1018.8
2017-May-15 16:29N 42°53' E 006°43'918.1
2017-May-15 15:58N 43°01' E 006°50'918.8
2017-May-15 15:30N 43°10' E 006°53'1318.7
2017-May-15 14:48N 43°22' E 006°57'517.8
2017-May-15 14:30N 43°27' E 006°59'5 4.8
2017-May-15 13:30N 43°32' E 007°01'0 0.0
2017-May-15 13:00N 43°32' E 007°01'0 0.0
2017-May-15 12:30N 43°32' E 007°01'0 0.0
2017-May-15 12:00N 43°32' E 007°01'0 0.0
2017-May-15 11:30N 43°32' E 007°01'0 0.0
2017-May-15 11:00N 43°32' E 007°01'0 0.0
2017-May-15 10:30N 43°32' E 007°01'0 0.0
2017-May-15 10:00N 43°32' E 007°01'0 0.0
2017-May-15 09:30N 43°32' E 007°01'0 0.0
2017-May-15 09:00N 43°32' E 007°01'0 0.0
2017-May-15 08:30N 43°32' E 007°01'  

Dump ship's entire track history